Sichem Paris — ZCEO9 — position and weather

sailwx.info

Track history (hours):
 
Tides and Currents Weather Stations Pressure Air Temp Water Temp Dewpoint Dewpoint Depression Visibility Wind Speed Wind Dir Waves Ship Positions

Sichem Paris

Last reported at 2018-Apr-24 00:45 UTC. Time now 2018-Jun-18 22:34 UTC.
Position N 31°37' E 031°47'.
Warning: this ship's position is 55 days out of date.

Length 128 m; draft 8.3 m.

Type: Tanker. MMSI: 310705000.

Date/timePositionNaut miles runAvg speedWind from/ knotsBaromVisibWave heightAir tempDewpointWater temp
2018-Apr-24 00:45N 31°37' E 031°47'  
2018-Apr-18 17:25N 36°17' E 015°01'614.0
2018-Apr-18 17:00N 36°19' E 014°54'611.9
2018-Apr-18 16:30N 36°20' E 014°47'612.7
2018-Apr-18 16:00N 36°21' E 014°39'713.2
2018-Apr-18 15:29N 36°22' E 014°31'511.3
2018-Apr-18 15:01N 36°23' E 014°24'612.1
2018-Apr-18 14:30N 36°24' E 014°17'714.7
2018-Apr-18 14:00N 36°25' E 014°08'510.0
2018-Apr-18 13:30N 36°27' E 014°02'612.2
2018-Apr-18 13:00N 36°29' E 013°54'712.9
2018-Apr-18 12:28N 36°31' E 013°47'1413.0
2018-Apr-18 11:23N 36°36' E 013°30'1611.7
2018-Apr-18 10:03N 36°41' E 013°12'58812.6
2018-Apr-16 11:19N 40°54' E 001°51'511.5
2018-Apr-16 10:55N 40°56' E 001°46'511.4
2018-Apr-16 10:30N 40°57' E 001°40'208 5.8
2018-Apr-14 22:43N 37°50' W 000°17'611.7
2018-Apr-14 22:13N 37°45' W 000°21'812.3
2018-Apr-14 21:35N 37°39' W 000°26'112.1
2018-Apr-14 21:30N 37°38' W 000°27'612.1
2018-Apr-14 21:00N 37°33' W 000°31'812.5
2018-Apr-14 20:21N 37°27' W 000°39'412.3
2018-Apr-14 20:00N 37°25' W 000°43'612.4
2018-Apr-14 19:30N 37°20' W 000°49'711.9
2018-Apr-14 18:56N 37°16' W 000°55'22212.3
2018-Apr-14 00:56N 35°57' W 005°13'  
Track history (hours):
 
Tides and Currents Weather Stations Pressure Air Temp Water Temp Dewpoint Dewpoint Depression Visibility Wind Speed Wind Dir Waves Ship Positions

Sichem Paris

Last reported at 2018-Apr-24 00:45 UTC. Time now 2018-Jun-18 22:34 UTC.
Position N 31°37' E 031°47'.
Warning: this ship's position is 55 days out of date.

Length 128 m; draft 8.3 m.

Type: Tanker. MMSI: 310705000.

Date/timePositionNaut miles runAvg speedWind from/ knotsBaromVisibWave heightAir tempDewpointWater temp
2018-Apr-24 00:45N 31°37' E 031°47'  
2018-Apr-18 17:25N 36°17' E 015°01'614.0
2018-Apr-18 17:00N 36°19' E 014°54'611.9
2018-Apr-18 16:30N 36°20' E 014°47'612.7
2018-Apr-18 16:00N 36°21' E 014°39'713.2
2018-Apr-18 15:29N 36°22' E 014°31'511.3
2018-Apr-18 15:01N 36°23' E 014°24'612.1
2018-Apr-18 14:30N 36°24' E 014°17'714.7
2018-Apr-18 14:00N 36°25' E 014°08'510.0
2018-Apr-18 13:30N 36°27' E 014°02'612.2
2018-Apr-18 13:00N 36°29' E 013°54'712.9
2018-Apr-18 12:28N 36°31' E 013°47'1413.0
2018-Apr-18 11:23N 36°36' E 013°30'1611.7
2018-Apr-18 10:03N 36°41' E 013°12'58812.6
2018-Apr-16 11:19N 40°54' E 001°51'511.5
2018-Apr-16 10:55N 40°56' E 001°46'511.4
2018-Apr-16 10:30N 40°57' E 001°40'208 5.8
2018-Apr-14 22:43N 37°50' W 000°17'611.7
2018-Apr-14 22:13N 37°45' W 000°21'812.3
2018-Apr-14 21:35N 37°39' W 000°26'112.1
2018-Apr-14 21:30N 37°38' W 000°27'612.1
2018-Apr-14 21:00N 37°33' W 000°31'812.5
2018-Apr-14 20:21N 37°27' W 000°39'412.3
2018-Apr-14 20:00N 37°25' W 000°43'612.4
2018-Apr-14 19:30N 37°20' W 000°49'711.9
2018-Apr-14 18:56N 37°16' W 000°55'22212.3
2018-Apr-14 00:56N 35°57' W 005°13'  

Dump ship's entire track history